Time;durP1;ratioP1;P1;durP2;ratioP2;P2;SDS_P1;SDS_P2;PMS_P1;PMS_P2;Temp;Humidity;BMP_temperature;BMP_pressure;BME280_temperature;BME280_humidity;BME280_pressure;Samples;Min_cycle;Max_cycle;Signal;HPM_P1;HPM_P2
2022/08/22 00:00:10;;;;;;;1.67;1.10;;;;;;;17.92;94.14;100425.22;5039482;28;20115;-69
2022/08/22 00:02:56;;;;;;;1.77;0.65;;;;;;;17.90;93.87;100417.13;5024857;28;20039;-70
2022/08/22 00:05:31;;;;;;;2.28;0.77;;;;;;;17.88;94.05;100413.81;5032616;28;20589;-69
2022/08/22 00:08:08;;;;;;;1.83;0.90;;;;;;;17.85;93.94;100420.13;5057791;28;20037;-69
2022/08/22 00:10:52;;;;;;;0.82;0.70;;;;;;;17.84;94.08;100427.75;5022709;28;20034;-69
2022/08/22 00:13:26;;;;;;;1.48;0.70;;;;;;;17.81;93.91;100436.88;5039583;28;20040;-69
2022/08/22 00:16:02;;;;;;;1.25;0.88;;;;;;;17.80;93.86;100428.75;5037761;28;20028;-69
2022/08/22 00:18:33;;;;;;;1.42;0.82;;;;;;;17.79;93.85;100421.53;5003370;28;20527;-69
2022/08/22 00:21:24;;;;;;;3.75;1.02;;;;;;;17.77;93.98;100424.63;5039424;28;20049;-69
2022/08/22 00:24:17;;;;;;;1.92;0.98;;;;;;;17.76;93.90;100425.00;5007084;28;20042;-69
2022/08/22 00:26:45;;;;;;;0.90;0.80;;;;;;;17.75;94.39;100431.78;5001730;28;20029;-69
2022/08/22 00:29:30;;;;;;;1.25;0.85;;;;;;;17.75;94.58;100440.22;5023197;28;20385;-69
2022/08/22 00:32:07;;;;;;;1.42;0.95;;;;;;;17.75;95.07;100437.41;5015873;28;20031;-69
2022/08/22 00:34:49;;;;;;;2.50;1.10;;;;;;;17.73;94.99;100434.09;5024332;28;20056;-69
2022/08/22 00:37:18;;;;;;;1.98;1.08;;;;;;;17.73;94.80;100428.50;4988278;28;20132;-69
2022/08/22 00:39:46;;;;;;;1.85;1.23;;;;;;;17.72;95.12;100427.69;5034579;28;20033;-70
2022/08/22 00:42:20;;;;;;;1.02;0.88;;;;;;;17.73;94.94;100417.25;5038124;28;20036;-70
2022/08/22 00:44:58;;;;;;;3.03;1.30;;;;;;;17.71;95.19;100411.97;5022829;28;20028;-69
2022/08/22 00:48:01;;;;;;;1.92;0.90;;;;;;;17.71;94.99;100411.97;5024248;28;20036;-69
2022/08/22 00:50:51;;;;;;;2.55;1.00;;;;;;;17.71;94.82;100416.78;5035633;28;20025;-70
2022/08/22 00:53:40;;;;;;;1.65;1.10;;;;;;;17.72;94.85;100410.81;5017778;28;20032;-69
2022/08/22 00:56:37;;;;;;;1.63;1.17;;;;;;;17.72;95.24;100405.22;5022909;28;20102;-69
2022/08/22 00:59:26;;;;;;;3.40;1.23;;;;;;;17.71;95.64;100402.72;5047884;28;20036;-69
2022/08/22 01:02:16;;;;;;;2.10;1.30;;;;;;;17.70;95.63;100409.53;4989116;28;20496;-69
2022/08/22 01:05:00;;;;;;;3.20;1.55;;;;;;;17.70;96.16;100407.53;5053828;28;20072;-69
2022/08/22 01:07:42;;;;;;;2.10;1.58;;;;;;;17.69;97.01;100416.28;5028798;28;20041;-69
2022/08/22 01:10:15;;;;;;;2.03;1.55;;;;;;;17.69;95.79;100417.13;5002921;28;20037;-69
2022/08/22 01:13:02;;;;;;;2.25;1.52;;;;;;;17.69;95.41;100407.84;5054714;28;20036;-69
2022/08/22 01:15:30;;;;;;;1.45;1.30;;;;;;;17.69;95.62;100410.66;5035950;28;20085;-70
2022/08/22 01:18:27;;;;;;;3.45;1.40;;;;;;;17.69;95.21;100416.28;5002797;28;20037;-69
2022/08/22 01:21:14;;;;;;;2.15;1.95;;;;;;;17.70;95.81;100417.94;5038368;28;20080;-69
2022/08/22 01:24:04;;;;;;;1.95;1.50;;;;;;;17.68;96.32;100415.47;5056223;28;20417;-70
2022/08/22 01:26:51;;;;;;;1.80;1.40;;;;;;;17.69;95.61;100416.28;5043438;28;20041;-69
2022/08/22 01:29:17;;;;;;;2.20;1.70;;;;;;;17.69;95.86;100419.09;5038318;28;20069;-69
2022/08/22 01:31:43;;;;;;;2.35;1.40;;;;;;;17.70;95.69;100420.75;5055999;28;20076;-69
2022/08/22 01:34:36;;;;;;;2.15;1.35;;;;;;;17.70;95.56;100418.75;5055923;28;20033;-69
2022/08/22 01:37:23;;;;;;;1.90;1.45;;;;;;;17.70;95.48;100413.16;5052826;28;20056;-69
2022/08/22 01:40:41;;;;;;;2.58;1.30;;;;;;;17.70;95.29;100412.31;5021772;28;20025;-69
2022/08/22 01:43:18;;;;;;;1.98;1.67;;;;;;;17.69;95.83;100407.84;5010707;28;20513;-69
2022/08/22 01:45:59;;;;;;;2.67;1.40;;;;;;;17.70;95.70;100413.16;5004452;28;20040;-69
2022/08/22 01:48:53;;;;;;;4.60;2.20;;;;;;;17.70;95.91;100417.94;5038472;28;20389;-69
2022/08/22 01:51:41;;;;;;;2.30;1.63;;;;;;;17.71;95.83;100422.38;5031006;28;20045;-70
2022/08/22 01:54:34;;;;;;;1.98;1.60;;;;;;;17.70;95.80;100417.94;5055746;28;20091;-69
2022/08/22 01:57:02;;;;;;;2.22;1.60;;;;;;;17.70;95.55;100417.94;5038157;28;20029;-69
2022/08/22 01:59:42;;;;;;;2.00;1.60;;;;;;;17.71;95.52;100422.38;5021489;28;20430;-70
2022/08/22 02:02:21;;;;;;;2.55;1.50;;;;;;;17.71;95.38;100411.97;5021624;28;20021;-69
2022/08/22 02:05:17;;;;;;;2.55;1.70;;;;;;;17.71;95.55;100411.97;5019530;28;20022;-69
2022/08/22 02:08:11;;;;;;;4.22;1.50;;;;;;;17.71;95.52;100403.53;5000106;28;20055;-69
2022/08/22 02:10:56;;;;;;;2.95;1.58;;;;;;;17.71;95.15;100397.94;5008939;28;20517;-70
2022/08/22 02:13:29;;;;;;;6.22;1.80;;;;;;;17.70;95.32;100401.91;5037598;28;20025;-70
2022/08/22 02:16:06;;;;;;;2.30;1.77;;;;;;;17.72;95.54;100413.63;5015901;28;20033;-69
2022/08/22 02:18:49;;;;;;;2.33;1.60;;;;;;;17.71;95.17;100400.72;5055791;28;20029;-70
2022/08/22 02:21:16;;;;;;;;;;;;;;;17.72;95.42;100393.13;5006624;28;20044;-70
2022/08/22 02:23:50;;;;;;;4.30;1.70;;;;;;;17.72;95.43;100390.31;5037822;28;19913;-70
2022/08/22 02:26:28;;;;;;;4.10;1.75;;;;;;;17.71;95.64;100388.69;5021218;28;20048;-70
2022/08/22 02:29:00;;;;;;;3.25;1.73;;;;;;;17.72;95.53;100388.34;5037406;28;20029;-70
2022/08/22 02:31:42;;;;;;;3.05;1.95;;;;;;;17.72;95.83;100391.16;5037723;28;20041;-70
2022/08/22 02:34:39;;;;;;;3.72;2.00;;;;;;;17.73;95.14;100389.16;5017152;28;20044;-70
2022/08/22 02:37:28;;;;;;;3.60;2.00;;;;;;;17.71;95.66;100374.66;4991324;28;20033;-70
2022/08/22 02:40:12;;;;;;;4.15;2.35;;;;;;;17.72;95.60;100370.66;5040325;28;20085;-70
2022/08/22 02:42:38;;;;;;;3.05;1.70;;;;;;;17.71;95.73;100369.84;5042995;28;20085;-70
2022/08/22 02:45:14;;;;;;;4.13;2.58;;;;;;;17.71;96.29;100363.41;5037417;28;20540;-70
2022/08/22 02:47:45;;;;;;;4.10;2.30;;;;;;;17.71;95.93;100364.22;5054086;28;20385;-70
2022/08/22 02:50:48;;;;;;;4.97;2.40;;;;;;;17.70;96.29;100373.81;5024643;28;20029;-70
2022/08/22 02:53:21;;;;;;;4.00;2.45;;;;;;;17.71;96.20;100378.25;5059077;28;20115;-70
2022/08/22 02:56:03;;;;;;;5.10;2.90;;;;;;;17.69;97.38;100375.00;5020478;28;20041;-70
2022/08/22 02:58:53;;;;;;;5.47;3.40;;;;;;;17.70;97.05;100376.63;5025865;28;20037;-70
2022/08/22 03:01:23;;;;;;;4.68;2.97;;;;;;;17.69;96.57;100368.53;5008893;28;20029;-70
2022/08/22 03:03:49;;;;;;;5.00;3.45;;;;;;;17.70;96.49;100367.41;5033031;28;20041;-70
2022/08/22 03:06:32;;;;;;;6.93;3.25;;;;;;;17.69;97.47;100360.13;5040924;28;20083;-70
2022/08/22 03:09:20;;;;;;;2.92;2.35;;;;;;;17.68;96.37;100364.09;5040912;28;20037;-70
2022/08/22 03:11:49;;;;;;;4.32;3.55;;;;;;;17.69;97.15;100360.13;5016538;28;20037;-70
2022/08/22 03:14:33;;;;;;;6.75;4.05;;;;;;;17.67;97.14;100345.63;4999286;28;20119;-70
2022/08/22 03:17:15;;;;;;;3.83;2.70;;;;;;;17.68;97.03;100330.41;5022357;28;20037;-70
2022/08/22 03:20:05;;;;;;;3.63;2.83;;;;;;;17.66;97.21;100327.94;5009703;28;20056;-70
2022/08/22 03:22:53;;;;;;;4.13;3.40;;;;;;;17.68;97.80;100324.78;5021854;28;20512;-70
2022/08/22 03:25:28;;;;;;;5.18;2.97;;;;;;;17.65;97.55;100329.91;5021277;28;20033;-70
2022/08/22 03:27:57;;;;;;;3.25;2.65;;;;;;;17.67;97.36;100340.00;5037215;28;20096;-70
2022/08/22 03:30:40;;;;;;;3.97;2.80;;;;;;;17.67;96.86;100345.63;5038852;28;20049;-69
2022/08/22 03:33:20;;;;;;;5.32;3.53;;;;;;;17.67;96.97;100356.84;5022175;28;20055;-70
2022/08/22 03:35:45;;;;;;;4.50;3.10;;;;;;;17.65;97.13;100352.38;5020889;28;20029;-70
2022/08/22 03:38:20;;;;;;;3.53;2.55;;;;;;;17.67;96.29;100359.66;5020751;28;20120;-70
2022/08/22 03:40:51;;;;;;;4.50;2.42;;;;;;;17.65;96.09;100345.94;5053629;28;20026;-70
2022/08/22 03:43:33;;;;;;;3.60;2.35;;;;;;;17.64;96.01;100336.72;5036099;28;20116;-70
2022/08/22 03:46:36;;;;;;;3.92;2.35;;;;;;;17.65;95.76;100321.50;4989036;28;20092;-70
2022/08/22 03:49:12;;;;;;;3.83;2.75;;;;;;;17.66;95.70;100311.06;5021310;28;20025;-69
2022/08/22 03:52:03;;;;;;;3.42;2.88;;;;;;;17.66;96.63;100311.06;5036890;28;20113;-70
2022/08/22 03:54:40;;;;;;;3.58;2.80;;;;;;;17.66;96.60;100316.69;5028322;28;20033;-70
2022/08/22 03:57:31;;;;;;;3.47;2.50;;;;;;;17.63;96.45;100318.25;5037958;28;20059;-70
2022/08/22 04:00:35;;;;;;;6.72;2.83;;;;;;;17.64;96.63;100316.25;5017917;28;20034;-70
2022/08/22 04:03:13;;;;;;;5.18;3.00;;;;;;;17.63;97.14;100328.63;5036294;28;20577;-70
2022/08/22 04:06:21;;;;;;;4.07;3.10;;;;;;;17.61;97.09;100336.59;5020068;28;20041;-70
2022/08/22 04:08:49;;;;;;;4.25;2.83;;;;;;;17.62;96.92;100344.66;5036360;28;20037;-70
2022/08/22 04:11:24;;;;;;;3.22;2.55;;;;;;;17.62;96.71;100350.28;5036392;28;20040;-70
2022/08/22 04:13:56;;;;;;;3.88;2.55;;;;;;;17.61;96.53;100354.25;5037581;28;20033;-70
2022/08/22 04:16:40;;;;;;;3.58;2.45;;;;;;;17.60;96.31;100361.03;5030160;28;20100;-70
2022/08/22 04:19:28;;;;;;;4.53;2.65;;;;;;;17.59;96.15;100365.00;5052985;28;20504;-70
2022/08/22 04:22:07;;;;;;;2.83;2.45;;;;;;;17.58;96.09;100360.56;5016496;28;20054;-70
2022/08/22 04:24:33;;;;;;;3.70;2.25;;;;;;;17.58;95.90;100342.91;5000164;28;20065;-70
2022/08/22 04:27:07;;;;;;;3.67;2.15;;;;;;;17.61;95.97;100342.22;5037218;28;20036;-70
2022/08/22 04:29:37;;;;;;;2.90;2.60;;;;;;;17.58;96.06;100326.88;5003612;28;20030;-70
2022/08/22 04:32:24;;;;;;;4.78;2.72;;;;;;;17.58;96.20;100321.25;5035920;28;20033;-70
2022/08/22 04:35:09;;;;;;;4.50;3.00;;;;;;;17.58;96.31;100331.69;5004060;28;20112;-70
2022/08/22 04:37:41;;;;;;;3.97;2.70;;;;;;;17.57;96.56;100319.59;5020549;28;20036;-69
2022/08/22 04:40:20;;;;;;;5.55;3.50;;;;;;;17.58;96.28;100321.25;5037387;28;20064;-70
2022/08/22 04:42:50;;;;;;;5.32;3.22;;;;;;;17.56;97.06;100323.59;5000339;28;20434;-70
2022/08/22 04:45:21;;;;;;;4.45;2.95;;;;;;;17.56;96.89;100329.19;5016430;28;20025;-70
2022/08/22 04:47:52;;;;;;;4.37;3.30;;;;;;;17.56;97.08;100322.75;5019569;28;20029;-70
2022/08/22 04:50:22;;;;;;;3.80;2.85;;;;;;;17.56;96.66;100332.00;5019090;28;20025;-70
2022/08/22 04:52:47;;;;;;;5.43;3.10;;;;;;;17.56;96.44;100326.38;5035798;28;20034;-70
2022/08/22 04:55:31;;;;;;;4.85;2.60;;;;;;;17.56;96.26;100325.56;5037006;28;20041;-70
2022/08/22 04:58:31;;;;;;;4.03;2.60;;;;;;;17.55;96.09;100321.09;5034728;28;20413;-70
2022/08/22 05:01:02;;;;;;;3.97;3.00;;;;;;;17.54;96.26;100327.91;5034914;28;20068;-70
2022/08/22 05:03:28;;;;;;;5.68;2.60;;;;;;;17.54;96.46;100322.28;5015768;28;20029;-70
2022/08/22 05:05:54;;;;;;;3.65;2.55;;;;;;;17.53;96.29;100317.84;5012540;28;20029;-70
2022/08/22 05:08:23;;;;;;;3.17;2.70;;;;;;;17.52;96.44;100321.81;5002790;28;20029;-70
2022/08/22 05:10:49;;;;;;;4.70;2.80;;;;;;;17.53;96.17;100346.75;5019302;28;20072;-70
2022/08/22 05:13:38;;;;;;;4.57;3.60;;;;;;;17.54;96.70;100345.56;5001872;28;20029;-70
2022/08/22 05:16:05;;;;;;;4.15;2.50;;;;;;;17.54;96.57;100351.19;5030084;28;20029;-70
2022/08/22 05:18:40;;;;;;;3.42;2.40;;;;;;;17.54;96.40;100351.19;4999790;28;20038;-70
2022/08/22 05:21:06;;;;;;;4.47;2.78;;;;;;;17.55;96.44;100352.00;5019061;28;20551;-70
2022/08/22 05:23:41;;;;;;;2.83;2.50;;;;;;;17.55;96.60;100344.41;5002392;28;20025;-70
2022/08/22 05:26:06;;;;;;;3.33;2.70;;;;;;;17.55;96.26;100338.78;5003410;28;20072;-70
2022/08/22 05:28:37;;;;;;;6.68;3.60;;;;;;;17.55;96.96;100330.38;5000411;28;20026;-70
2022/08/22 05:31:08;;;;;;;7.15;3.67;;;;;;;17.57;97.40;100330.81;5002483;28;20044;-70
2022/08/22 05:33:46;;;;;;;4.95;4.05;;;;;;;17.56;97.32;100332.00;5002449;28;20053;-70
2022/08/22 05:36:26;;;;;;;6.60;4.50;;;;;;;17.57;97.62;100339.25;5016588;28;20030;-70
2022/08/22 05:38:56;;;;;;;4.95;3.75;;;;;;;17.60;97.31;100337.75;5020319;28;20037;-70
2022/08/22 05:41:24;;;;;;;7.40;5.18;;;;;;;17.60;97.32;100337.75;5018694;28;20405;-70
2022/08/22 05:43:50;;;;;;;8.65;4.97;;;;;;;17.62;97.75;100346.66;4999797;28;20028;-70
2022/08/22 05:46:44;;;;;;;7.63;4.93;;;;;;;17.61;98.26;100347.81;5017344;28;20033;-69
2022/08/22 05:49:45;;;;;;;6.13;4.68;;;;;;;17.62;97.94;100357.88;5019056;28;20120;-70
2022/08/22 05:52:23;;;;;;;7.95;4.60;;;;;;;17.63;98.23;100351.09;5015049;28;20042;-70
2022/08/22 05:54:55;;;;;;;6.30;4.65;;;;;;;17.64;97.43;100353.56;5034988;28;20037;-70
2022/08/22 05:57:31;;;;;;;5.45;4.10;;;;;;;17.65;97.80;100362.81;5005112;28;20022;-70
2022/08/22 06:00:07;;;;;;;9.35;5.35;;;;;;;17.67;98.55;100373.72;5018023;28;20505;-70
2022/08/22 06:02:57;;;;;;;7.93;4.53;;;;;;;17.68;98.35;100386.56;5018610;28;20025;-70
2022/08/22 06:05:33;;;;;;;6.25;4.50;;;;;;;17.69;98.10;100388.19;5034732;28;20446;-70
2022/08/22 06:08:02;;;;;;;6.80;4.47;;;;;;;17.71;97.42;100388.69;5016089;28;20440;-70
2022/08/22 06:10:34;;;;;;;5.60;4.10;;;;;;;17.73;97.27;100394.78;5018668;28;20026;-70
2022/08/22 06:13:06;;;;;;;7.57;4.47;;;;;;;17.74;97.33;100390.81;5015497;28;20108;-70
2022/08/22 06:15:50;;;;;;;6.35;4.45;;;;;;;17.75;97.61;100403.69;5017848;28;20087;-70
2022/08/22 06:18:22;;;;;;;7.18;4.32;;;;;;;17.77;97.70;100395.72;5034365;28;20040;-70
2022/08/22 06:20:57;;;;;;;6.65;4.63;;;;;;;17.79;97.30;100385.00;5034613;28;20037;-70
2022/08/22 06:23:36;;;;;;;5.32;4.28;;;;;;;17.81;97.08;100405.16;5024603;28;20034;-70
2022/08/22 06:26:02;;;;;;;7.38;4.70;;;;;;;17.83;97.51;100394.41;5022946;28;20030;-69
2022/08/22 06:28:31;;;;;;;7.00;4.57;;;;;;;17.85;97.53;100386.41;5002147;28;20033;-70
2022/08/22 06:30:57;;;;;;;5.75;4.32;;;;;;;17.86;96.87;100377.66;5024700;28;20033;-70
2022/08/22 06:33:28;;;;;;;5.90;4.80;;;;;;;17.88;97.32;100376.47;5039207;28;20037;-70
2022/08/22 06:39:09;;;;;;;7.07;4.82;;;;;;;17.92;98.08;100380.25;5027419;28;20026;-71
2022/08/22 06:41:39;;;;;;;6.18;4.93;;;;;;;17.93;98.29;100381.88;5023662;28;20021;-70
2022/08/22 06:44:04;;;;;;;8.02;6.28;;;;;;;17.97;99.50;100383.66;5018449;28;20048;-71
2022/08/22 06:46:30;;;;;;;7.45;5.25;;;;;;;17.99;98.89;100386.94;5002922;28;20037;-70
2022/08/22 06:48:56;;;;;;;6.78;4.80;;;;;;;18.02;98.05;100379.78;5002170;28;20514;-70
2022/08/22 06:51:22;;;;;;;6.93;4.55;;;;;;;18.05;98.19;100384.72;5020130;28;20025;-70
2022/08/22 06:53:49;;;;;;;6.40;4.53;;;;;;;18.07;98.56;100397.25;5021638;28;20108;-70
2022/08/22 06:56:28;;;;;;;7.47;4.97;;;;;;;18.09;98.82;100388.50;4982929;28;20232;-70
2022/08/22 06:58:56;;;;;;;6.60;5.22;;;;;;;18.14;98.75;100385.47;5021935;28;20191;-70
2022/08/22 07:01:54;;;;;;;8.05;5.15;;;;;;;18.16;99.01;100385.09;4981705;28;20028;-70
2022/08/22 07:04:24;;;;;;;5.53;4.38;;;;;;;18.19;98.71;100382.44;5022998;28;20116;-70
2022/08/22 07:06:50;;;;;;;8.32;5.63;;;;;;;18.22;99.28;100383.69;5020664;28;20057;-70
2022/08/22 07:09:30;;;;;;;8.85;5.40;;;;;;;18.23;98.93;100396.59;5019600;28;20092;-70
2022/08/22 07:11:58;;;;;;;6.25;4.60;;;;;;;18.25;98.90;100395.09;5014388;28;20048;-71
2022/08/22 07:14:32;;;;;;;7.60;5.97;;;;;;;18.27;100.00;100386.28;4989515;28;20033;-70
2022/08/22 07:17:02;;;;;;;6.30;5.18;;;;;;;18.29;100.00;100387.59;5015002;28;20141;-70
2022/08/22 07:19:34;;;;;;;8.45;5.38;;;;;;;18.31;100.00;100392.88;5021352;28;20055;-70
2022/08/22 07:22:12;;;;;;;7.70;5.28;;;;;;;18.34;100.00;100386.53;5003887;28;20054;-70
2022/08/22 07:24:44;;;;;;;9.77;7.07;;;;;;;18.36;100.00;100384.22;5028208;28;20040;-70
2022/08/22 07:27:58;;;;;;;9.07;6.38;;;;;;;18.39;100.00;100375.06;5022039;28;20061;-70
2022/08/22 07:30:25;;;;;;;6.95;5.13;;;;;;;18.41;100.00;100372.72;5001162;28;20108;-70
2022/08/22 07:32:52;;;;;;;7.55;6.03;;;;;;;18.45;100.00;100372.84;5028944;28;20029;-70
2022/08/22 07:35:54;;;;;;;7.65;5.80;;;;;;;18.49;100.00;100377.41;5036451;28;20037;-70
2022/08/22 07:38:28;;;;;;;10.80;5.68;;;;;;;18.56;100.00;100381.66;4979673;28;20374;-70
2022/08/22 07:40:53;;;;;;;6.93;5.35;;;;;;;18.60;100.00;100383.38;5036694;28;20478;-70
2022/08/22 07:43:39;;;;;;;8.98;5.63;;;;;;;18.65;99.70;100376.72;5045385;28;20030;-70
2022/08/22 07:46:24;;;;;;;6.10;4.72;;;;;;;18.71;99.67;100383.75;4998462;28;20033;-70
2022/08/22 07:49:02;;;;;;;6.82;4.60;;;;;;;18.78;98.13;100384.00;5036844;28;20029;-70
2022/08/22 07:51:44;;;;;;;9.35;5.22;;;;;;;18.85;99.18;100387.03;5022062;28;20111;-70
2022/08/22 07:54:14;;;;;;;6.25;4.70;;;;;;;18.91;99.68;100382.81;5027689;28;20044;-70
2022/08/22 07:56:59;;;;;;;5.80;5.13;;;;;;;18.98;99.28;100379.41;5024819;28;20025;-70
2022/08/22 07:59:27;;;;;;;8.43;6.20;;;;;;;19.07;100.00;100379.28;5036432;28;20401;-70
2022/08/22 08:01:55;;;;;;;9.20;7.05;;;;;;;19.13;100.00;100389.94;5004573;28;20112;-71
2022/08/22 08:04:25;;;;;;;7.88;6.20;;;;;;;19.21;100.00;100393.78;4990628;28;20026;-70
2022/08/22 08:06:51;;;;;;;7.93;6.40;;;;;;;19.28;100.00;100391.19;4997108;28;20033;-70
2022/08/22 08:09:17;;;;;;;9.32;6.63;;;;;;;19.35;100.00;100401.84;5041020;28;20409;-70
2022/08/22 08:11:42;;;;;;;8.02;5.28;;;;;;;19.40;100.00;100393.97;5004713;28;20037;-70
2022/08/22 08:14:08;;;;;;;6.55;5.60;;;;;;;19.47;100.00;100395.34;5004829;28;20107;-70
2022/08/22 08:17:00;;;;;;;6.15;5.55;;;;;;;19.53;100.00;100389.13;5009559;28;20036;-70
2022/08/22 08:19:26;;;;;;;7.57;5.75;;;;;;;19.57;99.65;100392.03;5021081;28;20103;-70
2022/08/22 08:21:53;;;;;;;6.57;5.43;;;;;;;19.64;99.39;100389.44;4987986;28;20045;-71
2022/08/22 08:24:21;;;;;;;6.28;5.57;;;;;;;19.71;99.20;100383.22;5021070;28;20038;-70
2022/08/22 08:29:37;;;;;;;7.22;5.03;;;;;;;19.83;98.57;100388.78;5023526;28;20049;-70
2022/08/22 08:32:03;;;;;;;6.72;5.18;;;;;;;19.91;98.25;100396.25;5004609;28;20033;-70
2022/08/22 08:34:31;;;;;;;6.70;5.10;;;;;;;19.96;97.48;100395.19;5020750;28;20040;-71
2022/08/22 08:37:32;;;;;;;5.65;4.40;;;;;;;20.01;94.95;100390.09;5019580;28;20445;-70
2022/08/22 08:39:58;;;;;;;6.38;5.25;;;;;;;20.08;94.78;100383.84;5022745;28;20560;-72
2022/08/22 08:45:43;;;;;;;;;;;;;;;20.20;96.61;100378.13;5035196;28;20100;-71
2022/08/22 08:48:24;;;;;;;5.97;5.10;;;;;;;20.24;95.54;100376.22;5019663;28;20370;-72
2022/08/22 08:51:08;;;;;;;7.70;5.63;;;;;;;20.27;94.32;100374.66;5034954;28;20038;-71
2022/08/22 08:53:49;;;;;;;7.03;5.63;;;;;;;20.32;96.55;100374.41;5035466;28;20052;-72
2022/08/22 08:56:25;;;;;;;5.97;4.95;;;;;;;20.35;95.47;100373.69;5005691;28;20136;-72
2022/08/22 08:59:16;;;;;;;6.45;4.97;;;;;;;20.37;95.45;100373.31;4988586;28;20036;-72
2022/08/22 09:01:59;;;;;;;6.63;5.68;;;;;;;20.42;96.75;100376.69;5004840;28;20072;-72
2022/08/22 09:04:53;;;;;;;6.82;4.68;;;;;;;20.46;94.87;100376.78;5021971;28;20025;-72
2022/08/22 09:07:29;;;;;;;5.70;4.53;;;;;;;20.49;93.74;100384.50;5003750;28;20033;-72
2022/08/22 09:10:17;;;;;;;5.85;5.18;;;;;;;20.52;92.64;100381.75;5037401;28;20085;-71
2022/08/22 09:12:59;;;;;;;7.35;4.70;;;;;;;20.59;95.87;100385.97;5020146;28;20061;-71
2022/08/22 09:15:49;;;;;;;6.15;4.80;;;;;;;20.61;93.45;100383.59;5003963;28;20034;-70
2022/08/22 09:18:29;;;;;;;8.25;5.20;;;;;;;20.63;91.66;100375.59;5038074;28;20047;-71
2022/08/22 09:21:28;;;;;;;7.10;5.22;;;;;;;20.66;91.18;100374.88;5020044;28;20049;-72
2022/08/22 09:24:15;;;;;;;5.57;4.20;;;;;;;20.69;90.60;100383.41;5002058;28;20041;-71
2022/08/22 09:26:47;;;;;;;5.63;4.18;;;;;;;20.72;90.89;100384.69;5020913;28;20097;-72
2022/08/22 09:29:44;;;;;;;4.53;3.85;;;;;;;20.73;93.96;100381.50;5036714;28;20427;-71
2022/08/22 09:32:45;;;;;;;4.25;3.40;;;;;;;20.74;95.33;100388.78;5029452;28;20037;-71
2022/08/22 09:35:43;;;;;;;4.85;3.90;;;;;;;20.77;92.97;100386.44;5021148;28;20432;-71
2022/08/22 09:38:23;;;;;;;5.25;3.80;;;;;;;20.80;90.46;100382.88;4967568;28;20033;-71
2022/08/22 09:41:10;;;;;;;4.45;3.60;;;;;;;20.84;90.26;100383.75;5036241;28;20037;-71
2022/08/22 09:43:35;;;;;;;3.20;2.60;;;;;;;20.91;93.81;100378.28;5005013;28;20030;-71
2022/08/22 09:46:17;;;;;;;4.57;2.72;;;;;;;20.98;90.29;100378.47;5009208;28;20409;-71
2022/08/22 09:49:16;;;;;;;2.53;2.05;;;;;;;21.07;94.81;100373.44;4999625;28;20033;-71
2022/08/22 09:51:55;;;;;;;4.10;2.53;;;;;;;21.14;90.44;100370.75;5014142;28;20036;-71
2022/08/22 09:54:42;;;;;;;3.20;2.42;;;;;;;21.19;88.63;100373.28;5016274;28;20045;-71
2022/08/22 09:57:32;;;;;;;2.00;1.80;;;;;;;21.26;92.61;100369.00;5002565;28;20030;-71
2022/08/22 10:00:08;;;;;;;3.33;2.60;;;;;;;21.29;88.89;100374.72;5017562;28;20080;-70
2022/08/22 10:02:49;;;;;;;4.53;1.90;;;;;;;21.35;89.59;100378.06;5034127;28;20025;-70
2022/08/22 10:05:24;;;;;;;2.33;2.10;;;;;;;21.40;87.79;100380.66;5018963;28;20033;-70
2022/08/22 10:07:52;;;;;;;3.25;1.63;;;;;;;21.45;87.83;100397.28;5019059;28;20038;-70
2022/08/22 10:10:23;;;;;;;3.40;2.00;;;;;;;21.49;87.09;100388.91;5019999;28;20034;-70
2022/08/22 10:13:05;;;;;;;1.88;1.50;;;;;;;21.51;89.76;100387.34;5001180;28;20026;-70
2022/08/22 10:15:55;;;;;;;2.75;1.77;;;;;;;21.55;87.49;100398.72;4999196;28;20026;-70
2022/08/22 10:18:46;;;;;;;2.08;1.50;;;;;;;21.56;86.57;100392.69;5019214;28;20029;-71
2022/08/22 10:21:22;;;;;;;2.63;1.70;;;;;;;21.58;86.52;100393.13;5012865;28;20099;-70
2022/08/22 10:24:14;;;;;;;1.40;1.30;;;;;;;21.60;86.81;100390.75;5014489;28;20038;-70
2022/08/22 10:26:44;;;;;;;1.50;1.25;;;;;;;21.63;86.59;100392.84;5033903;28;20030;-70
2022/08/22 10:29:24;;;;;;;5.32;1.35;;;;;;;21.66;86.85;100377.16;5031733;28;20034;-70
2022/08/22 10:31:53;;;;;;;3.67;1.00;;;;;;;21.71;88.56;100371.19;5032962;28;20026;-70
2022/08/22 10:34:26;;;;;;;1.20;0.95;;;;;;;21.75;89.07;100374.09;5010699;28;20036;-70
2022/08/22 10:37:12;;;;;;;1.67;1.00;;;;;;;21.86;88.46;100377.94;4999989;28;20026;-70
2022/08/22 10:39:43;;;;;;;0.95;0.80;;;;;;;21.91;86.01;100374.00;5018052;28;20435;-70
2022/08/22 10:42:29;;;;;;;1.20;0.90;;;;;;;22.00;86.57;100375.38;5016419;28;20029;-70
2022/08/22 10:45:27;;;;;;;1.10;0.90;;;;;;;22.11;87.45;100383.25;5002894;28;20045;-70
2022/08/22 10:47:53;;;;;;;0.98;0.90;;;;;;;22.20;85.75;100373.34;5031010;28;20038;-70
2022/08/22 10:50:23;;;;;;;1.60;0.85;;;;;;;22.29;85.57;100376.78;5036481;28;20037;-70
2022/08/22 10:53:28;;;;;;;0.70;0.70;;;;;;;22.41;84.62;100377.78;5035551;28;20035;-70
2022/08/22 10:55:36;;;;;;;1.98;0.70;;;;;;;22.53;84.69;100380.38;5023744;28;20072;-70
2022/08/22 10:58:09;;;;;;;0.70;0.68;;;;;;;22.67;86.15;100369.31;5014090;28;20029;-70
2022/08/22 11:00:49;;;;;;;0.90;0.70;;;;;;;22.87;84.02;100367.22;4998791;28;20171;-70
2022/08/22 11:03:23;;;;;;;0.90;0.57;;;;;;;23.06;84.49;100356.97;5019381;28;20037;-70
2022/08/22 11:05:49;;;;;;;1.13;0.80;;;;;;;23.29;86.05;100363.38;5036638;28;20065;-70
2022/08/22 11:08:31;;;;;;;0.50;0.50;;;;;;;23.46;83.29;100369.66;5018857;28;20021;-70
2022/08/22 11:11:15;;;;;;;1.05;0.52;;;;;;;23.60;80.22;100370.66;5030079;28;20041;-70
2022/08/22 11:13:48;;;;;;;0.75;0.52;;;;;;;23.79;80.16;100368.88;5037628;28;20055;-70
2022/08/22 11:16:32;;;;;;;0.73;0.60;;;;;;;23.94;80.99;100369.88;5032438;28;20101;-70
2022/08/22 11:19:19;;;;;;;0.80;0.80;;;;;;;24.12;82.95;100368.00;5040063;28;20037;-70
2022/08/22 11:22:24;;;;;;;2.20;0.65;;;;;;;24.29;77.79;100366.56;5032190;28;20502;-71
2022/08/22 11:25:14;;;;;;;2.35;0.60;;;;;;;24.49;80.15;100364.34;5017118;28;20057;-70
2022/08/22 11:27:51;;;;;;;0.85;0.50;;;;;;;24.70;76.00;100370.19;5035432;28;20486;-70
2022/08/22 11:30:19;;;;;;;1.25;0.50;;;;;;;24.86;77.17;100369.09;5034045;28;20068;-70
2022/08/22 11:32:57;;;;;;;1.38;0.50;;;;;;;25.02;74.86;100363.94;5000015;28;20502;-70
2022/08/22 11:35:34;;;;;;;1.25;0.70;;;;;;;25.18;75.55;100357.94;5033680;28;20128;-70
2022/08/22 11:38:07;;;;;;;2.15;0.60;;;;;;;25.33;73.89;100350.31;5002630;28;20033;-70
2022/08/22 11:40:45;;;;;;;0.60;0.60;;;;;;;25.44;73.56;100356.88;5024568;28;20114;-70
2022/08/22 11:43:36;;;;;;;1.95;0.60;;;;;;;25.61;74.10;100344.75;5017797;28;20032;-70
2022/08/22 11:46:29;;;;;;;2.75;0.50;;;;;;;25.80;72.88;100351.31;5017017;28;20033;-70
2022/08/22 11:49:08;;;;;;;0.63;0.40;;;;;;;25.94;71.87;100344.88;5017895;28;20053;-70
2022/08/22 11:51:51;;;;;;;1.00;0.45;;;;;;;26.08;70.98;100350.59;5033255;28;20045;-70
2022/08/22 11:54:25;;;;;;;2.13;0.47;;;;;;;26.25;70.88;100346.97;5021319;28;20030;-70
2022/08/22 11:56:53;;;;;;;1.80;0.50;;;;;;;26.44;71.92;100345.75;5032619;28;20041;-70
2022/08/22 11:59:25;;;;;;;0.60;0.30;;;;;;;26.63;71.30;100352.28;5017904;28;20056;-70
2022/08/22 12:01:55;;;;;;;1.45;0.55;;;;;;;26.80;69.60;100342.91;5017524;28;20029;-70
2022/08/22 12:04:37;;;;;;;0.75;0.47;;;;;;;27.01;68.08;100349.78;5000574;28;20029;-70
2022/08/22 12:07:13;;;;;;;1.27;0.60;;;;;;;27.16;66.74;100357.09;4999047;28;20049;-70
2022/08/22 12:09:42;;;;;;;2.85;0.30;;;;;;;27.30;67.10;100362.78;5033972;28;20049;-70
2022/08/22 12:12:16;;;;;;;1.30;0.50;;;;;;;27.43;65.39;100357.44;5033142;28;20048;-70
2022/08/22 12:14:55;;;;;;;1.63;0.50;;;;;;;27.47;64.09;100355.38;5034367;28;20053;-70
2022/08/22 12:17:42;;;;;;;0.75;0.43;;;;;;;27.52;63.53;100351.28;5007446;28;20049;-71
2022/08/22 12:20:20;;;;;;;0.80;0.40;;;;;;;27.53;62.12;100350.06;5033349;28;20049;-70
2022/08/22 12:23:03;;;;;;;0.50;0.40;;;;;;;27.59;62.59;100352.06;5017071;28;20120;-70
2022/08/22 12:25:41;;;;;;;2.75;0.50;;;;;;;27.64;63.32;100353.69;5001703;28;20117;-70